Edmond, Oklahoma
Current Conditions -  °F | °C
As of 9:53 AM on Friday 31 Oct 2014 (Local Time) from KPWA Reporting Station
Overcast Overcast  
Wind Chill: 40°   Ceiling: 1600
Heat Index: 46°   Visibility: 9mi
Dew Point: 39°   Wind: 14mph
Humidity: 76%   Direction: 10°N
Pressure: 30.43"   Gusts: 24mph
Location:  35.65°N, 97.48°W
Report Text: KPWA 311453Z 01012G21KT 9SM OVC016 08/04 A3043 RMK AO2 SLP305 T00780039 51022
Loading
Personal Weather Stations






























Interactive Weather Map New forecast layout! Learn more

10-Day Weather Forecast

Advertisements
Track Severe Weather on mobile